sensor_id;sensor_type;location;lat;lon;timestamp;P1;durP1;ratioP1;P2;durP2;ratioP2
20721;SDS011;10522;52.198;9.890;2023-12-07T00:01:57;24.53;;;16.10;;
20721;SDS011;10522;52.198;9.890;2023-12-07T00:04:22;27.20;;;17.07;;
20721;SDS011;10522;52.198;9.890;2023-12-07T00:06:48;25.37;;;16.97;;
20721;SDS011;10522;52.198;9.890;2023-12-07T00:09:14;21.50;;;13.43;;
20721;SDS011;10522;52.198;9.890;2023-12-07T00:11:39;25.97;;;16.73;;
20721;SDS011;10522;52.198;9.890;2023-12-07T00:14:05;27.37;;;17.33;;
20721;SDS011;10522;52.198;9.890;2023-12-07T00:16:30;25.37;;;16.67;;
20721;SDS011;10522;52.198;9.890;2023-12-07T00:18:56;24.33;;;15.50;;
20721;SDS011;10522;52.198;9.890;2023-12-07T00:21:22;26.97;;;16.97;;
20721;SDS011;10522;52.198;9.890;2023-12-07T00:23:47;23.80;;;15.87;;
20721;SDS011;10522;52.198;9.890;2023-12-07T00:26:13;21.33;;;15.13;;
20721;SDS011;10522;52.198;9.890;2023-12-07T00:28:39;24.67;;;15.30;;
20721;SDS011;10522;52.198;9.890;2023-12-07T00:31:04;24.20;;;15.23;;
20721;SDS011;10522;52.198;9.890;2023-12-07T00:33:30;24.17;;;15.83;;
20721;SDS011;10522;52.198;9.890;2023-12-07T00:35:56;24.50;;;14.13;;
20721;SDS011;10522;52.198;9.890;2023-12-07T00:38:21;22.87;;;15.03;;
20721;SDS011;10522;52.198;9.890;2023-12-07T00:40:47;30.43;;;15.50;;
20721;SDS011;10522;52.198;9.890;2023-12-07T00:43:13;22.57;;;15.33;;
20721;SDS011;10522;52.198;9.890;2023-12-07T00:45:38;23.87;;;15.37;;
20721;SDS011;10522;52.198;9.890;2023-12-07T00:48:04;26.67;;;16.47;;
20721;SDS011;10522;52.198;9.890;2023-12-07T00:50:30;22.93;;;14.97;;
20721;SDS011;10522;52.198;9.890;2023-12-07T00:52:56;26.40;;;15.70;;
20721;SDS011;10522;52.198;9.890;2023-12-07T00:55:21;24.10;;;16.67;;
20721;SDS011;10522;52.198;9.890;2023-12-07T00:57:47;29.70;;;16.07;;
20721;SDS011;10522;52.198;9.890;2023-12-07T01:00:12;27.43;;;16.90;;
20721;SDS011;10522;52.198;9.890;2023-12-07T01:02:38;27.07;;;17.07;;
20721;SDS011;10522;52.198;9.890;2023-12-07T01:05:04;24.63;;;16.17;;
20721;SDS011;10522;52.198;9.890;2023-12-07T01:07:30;23.53;;;15.03;;
20721;SDS011;10522;52.198;9.890;2023-12-07T01:09:56;24.37;;;15.47;;
20721;SDS011;10522;52.198;9.890;2023-12-07T01:12:21;25.33;;;16.70;;
20721;SDS011;10522;52.198;9.890;2023-12-07T01:14:47;25.70;;;17.23;;
20721;SDS011;10522;52.198;9.890;2023-12-07T01:17:13;24.13;;;16.00;;
20721;SDS011;10522;52.198;9.890;2023-12-07T01:19:38;25.10;;;16.00;;
20721;SDS011;10522;52.198;9.890;2023-12-07T01:22:04;25.73;;;14.40;;
20721;SDS011;10522;52.198;9.890;2023-12-07T01:24:29;24.53;;;16.17;;
20721;SDS011;10522;52.198;9.890;2023-12-07T01:26:55;25.50;;;16.77;;
20721;SDS011;10522;52.198;9.890;2023-12-07T01:29:21;26.90;;;15.53;;
20721;SDS011;10522;52.198;9.890;2023-12-07T01:31:46;27.43;;;15.27;;
20721;SDS011;10522;52.198;9.890;2023-12-07T01:34:12;22.87;;;15.97;;
20721;SDS011;10522;52.198;9.890;2023-12-07T01:36:37;27.43;;;16.37;;
20721;SDS011;10522;52.198;9.890;2023-12-07T01:39:03;26.73;;;16.40;;
20721;SDS011;10522;52.198;9.890;2023-12-07T01:41:29;30.30;;;17.67;;
20721;SDS011;10522;52.198;9.890;2023-12-07T01:43:55;25.63;;;15.77;;
20721;SDS011;10522;52.198;9.890;2023-12-07T01:46:20;24.10;;;14.83;;
20721;SDS011;10522;52.198;9.890;2023-12-07T01:48:46;25.30;;;15.63;;
20721;SDS011;10522;52.198;9.890;2023-12-07T01:51:15;25.50;;;16.17;;
20721;SDS011;10522;52.198;9.890;2023-12-07T01:53:42;25.53;;;16.63;;
20721;SDS011;10522;52.198;9.890;2023-12-07T01:56:08;22.37;;;14.93;;
20721;SDS011;10522;52.198;9.890;2023-12-07T01:58:35;25.87;;;14.90;;
20721;SDS011;10522;52.198;9.890;2023-12-07T02:01:01;23.60;;;16.47;;
20721;SDS011;10522;52.198;9.890;2023-12-07T02:03:29;24.23;;;15.57;;
20721;SDS011;10522;52.198;9.890;2023-12-07T02:05:55;22.20;;;15.20;;
20721;SDS011;10522;52.198;9.890;2023-12-07T02:08:23;23.93;;;15.17;;
20721;SDS011;10522;52.198;9.890;2023-12-07T02:10:49;21.20;;;14.23;;
20721;SDS011;10522;52.198;9.890;2023-12-07T02:13:14;23.07;;;15.23;;
20721;SDS011;10522;52.198;9.890;2023-12-07T02:15:40;25.03;;;16.63;;
20721;SDS011;10522;52.198;9.890;2023-12-07T02:18:14;30.73;;;16.33;;
20721;SDS011;10522;52.198;9.890;2023-12-07T02:20:52;24.87;;;16.47;;
20721;SDS011;10522;52.198;9.890;2023-12-07T02:23:25;23.40;;;16.13;;
20721;SDS011;10522;52.198;9.890;2023-12-07T02:25:53;24.57;;;16.87;;
20721;SDS011;10522;52.198;9.890;2023-12-07T02:28:20;26.87;;;17.17;;
20721;SDS011;10522;52.198;9.890;2023-12-07T02:30:46;24.93;;;17.07;;
20721;SDS011;10522;52.198;9.890;2023-12-07T02:33:11;26.93;;;17.23;;
20721;SDS011;10522;52.198;9.890;2023-12-07T02:35:38;25.13;;;17.17;;
20721;SDS011;10522;52.198;9.890;2023-12-07T02:38:05;24.83;;;16.77;;
20721;SDS011;10522;52.198;9.890;2023-12-07T02:40:32;28.57;;;16.93;;
20721;SDS011;10522;52.198;9.890;2023-12-07T02:42:58;26.47;;;17.00;;
20721;SDS011;10522;52.198;9.890;2023-12-07T02:45:25;28.83;;;17.17;;
20721;SDS011;10522;52.198;9.890;2023-12-07T02:47:53;27.87;;;17.83;;
20721;SDS011;10522;52.198;9.890;2023-12-07T02:50:19;26.30;;;16.73;;
20721;SDS011;10522;52.198;9.890;2023-12-07T02:52:44;28.97;;;17.93;;
20721;SDS011;10522;52.198;9.890;2023-12-07T02:55:10;25.87;;;15.73;;
20721;SDS011;10522;52.198;9.890;2023-12-07T02:57:36;27.03;;;16.80;;
20721;SDS011;10522;52.198;9.890;2023-12-07T03:00:02;23.57;;;16.27;;
20721;SDS011;10522;52.198;9.890;2023-12-07T03:02:36;27.00;;;16.47;;
20721;SDS011;10522;52.198;9.890;2023-12-07T03:05:02;25.60;;;17.70;;
20721;SDS011;10522;52.198;9.890;2023-12-07T03:07:29;23.50;;;16.10;;
20721;SDS011;10522;52.198;9.890;2023-12-07T03:09:54;27.87;;;17.67;;
20721;SDS011;10522;52.198;9.890;2023-12-07T03:12:20;27.87;;;17.87;;
20721;SDS011;10522;52.198;9.890;2023-12-07T03:14:46;26.00;;;17.17;;
20721;SDS011;10522;52.198;9.890;2023-12-07T03:17:11;23.73;;;16.30;;
20721;SDS011;10522;52.198;9.890;2023-12-07T03:19:38;26.30;;;17.43;;
20721;SDS011;10522;52.198;9.890;2023-12-07T03:22:04;25.40;;;16.73;;
20721;SDS011;10522;52.198;9.890;2023-12-07T03:24:31;22.77;;;15.37;;
20721;SDS011;10522;52.198;9.890;2023-12-07T03:26:57;24.80;;;16.17;;
20721;SDS011;10522;52.198;9.890;2023-12-07T03:29:22;24.97;;;15.97;;
20721;SDS011;10522;52.198;9.890;2023-12-07T03:31:48;25.83;;;15.03;;
20721;SDS011;10522;52.198;9.890;2023-12-07T03:34:14;24.73;;;16.13;;
20721;SDS011;10522;52.198;9.890;2023-12-07T03:36:40;23.30;;;15.27;;
20721;SDS011;10522;52.198;9.890;2023-12-07T03:39:07;20.93;;;14.13;;
20721;SDS011;10522;52.198;9.890;2023-12-07T03:41:33;23.37;;;14.90;;
20721;SDS011;10522;52.198;9.890;2023-12-07T03:43:58;27.40;;;15.67;;
20721;SDS011;10522;52.198;9.890;2023-12-07T03:46:24;25.00;;;16.50;;
20721;SDS011;10522;52.198;9.890;2023-12-07T03:48:49;23.97;;;15.60;;
20721;SDS011;10522;52.198;9.890;2023-12-07T03:51:15;25.60;;;15.07;;
20721;SDS011;10522;52.198;9.890;2023-12-07T03:53:41;32.70;;;15.73;;
20721;SDS011;10522;52.198;9.890;2023-12-07T03:56:07;26.33;;;16.20;;
20721;SDS011;10522;52.198;9.890;2023-12-07T03:58:33;26.23;;;16.80;;
20721;SDS011;10522;52.198;9.890;2023-12-07T04:00:59;25.47;;;15.90;;
20721;SDS011;10522;52.198;9.890;2023-12-07T04:03:25;27.10;;;16.60;;
20721;SDS011;10522;52.198;9.890;2023-12-07T04:05:50;23.90;;;15.77;;
20721;SDS011;10522;52.198;9.890;2023-12-07T04:08:16;28.30;;;16.40;;
20721;SDS011;10522;52.198;9.890;2023-12-07T04:10:42;29.23;;;16.53;;
20721;SDS011;10522;52.198;9.890;2023-12-07T04:13:08;26.57;;;16.03;;
20721;SDS011;10522;52.198;9.890;2023-12-07T04:15:33;27.07;;;17.37;;
20721;SDS011;10522;52.198;9.890;2023-12-07T04:17:59;26.80;;;16.73;;
20721;SDS011;10522;52.198;9.890;2023-12-07T04:20:24;26.13;;;16.80;;
20721;SDS011;10522;52.198;9.890;2023-12-07T04:22:50;26.00;;;15.30;;
20721;SDS011;10522;52.198;9.890;2023-12-07T04:25:16;28.77;;;17.10;;
20721;SDS011;10522;52.198;9.890;2023-12-07T04:27:41;26.17;;;16.10;;
20721;SDS011;10522;52.198;9.890;2023-12-07T04:30:07;23.37;;;15.37;;
20721;SDS011;10522;52.198;9.890;2023-12-07T04:32:33;24.80;;;14.40;;
20721;SDS011;10522;52.198;9.890;2023-12-07T04:34:58;26.13;;;16.30;;
20721;SDS011;10522;52.198;9.890;2023-12-07T04:37:24;26.17;;;16.20;;
20721;SDS011;10522;52.198;9.890;2023-12-07T04:39:49;26.20;;;16.90;;
20721;SDS011;10522;52.198;9.890;2023-12-07T04:42:15;26.03;;;16.70;;
20721;SDS011;10522;52.198;9.890;2023-12-07T04:44:40;27.23;;;15.43;;
20721;SDS011;10522;52.198;9.890;2023-12-07T04:47:06;26.17;;;16.73;;
20721;SDS011;10522;52.198;9.890;2023-12-07T04:49:32;26.60;;;16.03;;
20721;SDS011;10522;52.198;9.890;2023-12-07T04:51:57;26.80;;;15.80;;
20721;SDS011;10522;52.198;9.890;2023-12-07T04:54:23;27.10;;;17.13;;
20721;SDS011;10522;52.198;9.890;2023-12-07T04:56:48;28.27;;;15.97;;
20721;SDS011;10522;52.198;9.890;2023-12-07T04:59:14;29.03;;;17.37;;
20721;SDS011;10522;52.198;9.890;2023-12-07T05:01:39;25.17;;;16.13;;
20721;SDS011;10522;52.198;9.890;2023-12-07T05:04:05;23.27;;;15.27;;
20721;SDS011;10522;52.198;9.890;2023-12-07T05:06:31;25.97;;;16.47;;
20721;SDS011;10522;52.198;9.890;2023-12-07T05:08:57;27.80;;;16.67;;
20721;SDS011;10522;52.198;9.890;2023-12-07T05:11:23;26.83;;;17.00;;
20721;SDS011;10522;52.198;9.890;2023-12-07T05:13:48;26.60;;;16.93;;
20721;SDS011;10522;52.198;9.890;2023-12-07T05:16:14;28.23;;;17.40;;
20721;SDS011;10522;52.198;9.890;2023-12-07T05:18:40;26.97;;;16.70;;
20721;SDS011;10522;52.198;9.890;2023-12-07T05:21:06;27.70;;;16.93;;
20721;SDS011;10522;52.198;9.890;2023-12-07T05:23:31;25.13;;;15.30;;
20721;SDS011;10522;52.198;9.890;2023-12-07T05:25:57;25.97;;;16.00;;
20721;SDS011;10522;52.198;9.890;2023-12-07T05:28:23;26.73;;;16.47;;
20721;SDS011;10522;52.198;9.890;2023-12-07T05:30:48;26.63;;;16.47;;
20721;SDS011;10522;52.198;9.890;2023-12-07T05:33:14;26.23;;;16.00;;
20721;SDS011;10522;52.198;9.890;2023-12-07T05:35:40;26.30;;;16.30;;
20721;SDS011;10522;52.198;9.890;2023-12-07T05:38:06;25.57;;;16.30;;
20721;SDS011;10522;52.198;9.890;2023-12-07T05:40:32;24.27;;;15.20;;
20721;SDS011;10522;52.198;9.890;2023-12-07T05:42:58;23.17;;;14.23;;
20721;SDS011;10522;52.198;9.890;2023-12-07T05:45:24;23.43;;;15.17;;
20721;SDS011;10522;52.198;9.890;2023-12-07T05:47:51;24.03;;;15.63;;
20721;SDS011;10522;52.198;9.890;2023-12-07T05:50:16;32.63;;;16.83;;
20721;SDS011;10522;52.198;9.890;2023-12-07T05:52:42;26.37;;;16.27;;
20721;SDS011;10522;52.198;9.890;2023-12-07T05:55:08;26.60;;;15.97;;
20721;SDS011;10522;52.198;9.890;2023-12-07T05:57:34;25.87;;;14.97;;
20721;SDS011;10522;52.198;9.890;2023-12-07T06:00:00;22.53;;;14.83;;
20721;SDS011;10522;52.198;9.890;2023-12-07T06:02:26;21.63;;;13.23;;
20721;SDS011;10522;52.198;9.890;2023-12-07T06:04:51;25.07;;;14.83;;
20721;SDS011;10522;52.198;9.890;2023-12-07T06:07:17;25.77;;;15.03;;
20721;SDS011;10522;52.198;9.890;2023-12-07T06:09:43;24.43;;;14.97;;
20721;SDS011;10522;52.198;9.890;2023-12-07T06:12:08;22.77;;;14.07;;
20721;SDS011;10522;52.198;9.890;2023-12-07T06:14:34;25.80;;;14.63;;
20721;SDS011;10522;52.198;9.890;2023-12-07T06:16:59;25.27;;;14.80;;
20721;SDS011;10522;52.198;9.890;2023-12-07T06:19:25;25.03;;;15.50;;
20721;SDS011;10522;52.198;9.890;2023-12-07T06:21:51;25.17;;;14.53;;
20721;SDS011;10522;52.198;9.890;2023-12-07T06:24:16;23.27;;;14.83;;
20721;SDS011;10522;52.198;9.890;2023-12-07T06:26:42;23.53;;;15.33;;
20721;SDS011;10522;52.198;9.890;2023-12-07T06:29:07;24.47;;;14.73;;
20721;SDS011;10522;52.198;9.890;2023-12-07T06:31:33;26.87;;;15.53;;
20721;SDS011;10522;52.198;9.890;2023-12-07T06:33:59;21.77;;;14.03;;
20721;SDS011;10522;52.198;9.890;2023-12-07T06:36:26;25.07;;;15.27;;
20721;SDS011;10522;52.198;9.890;2023-12-07T06:38:52;23.20;;;14.73;;
20721;SDS011;10522;52.198;9.890;2023-12-07T06:41:18;26.03;;;16.03;;
20721;SDS011;10522;52.198;9.890;2023-12-07T06:43:44;25.83;;;15.07;;
20721;SDS011;10522;52.198;9.890;2023-12-07T06:46:13;26.90;;;15.63;;
20721;SDS011;10522;52.198;9.890;2023-12-07T06:48:39;25.73;;;15.97;;
20721;SDS011;10522;52.198;9.890;2023-12-07T06:51:05;24.77;;;16.03;;
20721;SDS011;10522;52.198;9.890;2023-12-07T06:53:31;23.33;;;14.60;;
20721;SDS011;10522;52.198;9.890;2023-12-07T06:55:57;25.50;;;15.77;;
20721;SDS011;10522;52.198;9.890;2023-12-07T06:58:23;26.10;;;15.63;;
20721;SDS011;10522;52.198;9.890;2023-12-07T07:00:49;25.43;;;15.50;;
20721;SDS011;10522;52.198;9.890;2023-12-07T07:03:15;27.23;;;17.20;;
20721;SDS011;10522;52.198;9.890;2023-12-07T07:05:41;27.60;;;15.90;;
20721;SDS011;10522;52.198;9.890;2023-12-07T07:08:07;26.30;;;16.57;;
20721;SDS011;10522;52.198;9.890;2023-12-07T07:10:33;26.60;;;16.23;;
20721;SDS011;10522;52.198;9.890;2023-12-07T07:13:00;28.53;;;17.60;;
20721;SDS011;10522;52.198;9.890;2023-12-07T07:15:29;26.40;;;14.67;;
20721;SDS011;10522;52.198;9.890;2023-12-07T07:17:55;26.90;;;16.97;;
20721;SDS011;10522;52.198;9.890;2023-12-07T07:20:20;30.73;;;16.37;;
20721;SDS011;10522;52.198;9.890;2023-12-07T07:22:47;29.73;;;17.17;;
20721;SDS011;10522;52.198;9.890;2023-12-07T07:25:13;24.77;;;16.03;;
20721;SDS011;10522;52.198;9.890;2023-12-07T07:27:41;22.60;;;14.77;;
20721;SDS011;10522;52.198;9.890;2023-12-07T07:30:07;23.80;;;14.83;;
20721;SDS011;10522;52.198;9.890;2023-12-07T07:32:33;25.93;;;16.37;;
20721;SDS011;10522;52.198;9.890;2023-12-07T07:34:59;25.30;;;15.87;;
20721;SDS011;10522;52.198;9.890;2023-12-07T07:37:25;26.20;;;16.37;;
20721;SDS011;10522;52.198;9.890;2023-12-07T07:39:50;25.70;;;15.07;;
20721;SDS011;10522;52.198;9.890;2023-12-07T07:42:16;24.80;;;14.90;;
20721;SDS011;10522;52.198;9.890;2023-12-07T07:44:42;29.17;;;16.93;;
20721;SDS011;10522;52.198;9.890;2023-12-07T07:47:07;25.57;;;16.50;;
20721;SDS011;10522;52.198;9.890;2023-12-07T07:49:33;25.23;;;16.37;;
20721;SDS011;10522;52.198;9.890;2023-12-07T07:51:59;23.13;;;15.40;;
20721;SDS011;10522;52.198;9.890;2023-12-07T07:54:24;22.07;;;13.77;;
20721;SDS011;10522;52.198;9.890;2023-12-07T07:56:50;26.33;;;15.50;;
20721;SDS011;10522;52.198;9.890;2023-12-07T07:59:16;26.20;;;14.77;;
20721;SDS011;10522;52.198;9.890;2023-12-07T08:01:42;25.87;;;15.30;;
20721;SDS011;10522;52.198;9.890;2023-12-07T08:04:07;23.80;;;14.83;;
20721;SDS011;10522;52.198;9.890;2023-12-07T08:06:34;23.53;;;14.40;;
20721;SDS011;10522;52.198;9.890;2023-12-07T08:09:00;26.47;;;14.07;;
20721;SDS011;10522;52.198;9.890;2023-12-07T08:11:26;22.13;;;14.20;;
20721;SDS011;10522;52.198;9.890;2023-12-07T08:13:51;24.87;;;15.67;;
20721;SDS011;10522;52.198;9.890;2023-12-07T08:16:17;22.40;;;14.57;;
20721;SDS011;10522;52.198;9.890;2023-12-07T08:18:44;21.40;;;13.57;;
20721;SDS011;10522;52.198;9.890;2023-12-07T08:21:17;20.30;;;13.43;;
20721;SDS011;10522;52.198;9.890;2023-12-07T08:23:44;21.30;;;13.93;;
20721;SDS011;10522;52.198;9.890;2023-12-07T08:26:09;23.40;;;14.53;;
20721;SDS011;10522;52.198;9.890;2023-12-07T08:28:36;23.63;;;14.53;;
20721;SDS011;10522;52.198;9.890;2023-12-07T08:31:01;23.57;;;14.30;;
20721;SDS011;10522;52.198;9.890;2023-12-07T08:33:27;22.00;;;14.00;;
20721;SDS011;10522;52.198;9.890;2023-12-07T08:35:53;24.17;;;14.30;;
20721;SDS011;10522;52.198;9.890;2023-12-07T08:38:20;21.40;;;13.57;;
20721;SDS011;10522;52.198;9.890;2023-12-07T08:40:47;21.70;;;13.43;;
20721;SDS011;10522;52.198;9.890;2023-12-07T08:43:12;23.00;;;13.27;;
20721;SDS011;10522;52.198;9.890;2023-12-07T08:45:38;21.67;;;14.30;;
20721;SDS011;10522;52.198;9.890;2023-12-07T08:48:04;22.13;;;13.87;;
20721;SDS011;10522;52.198;9.890;2023-12-07T08:50:30;23.63;;;14.73;;
20721;SDS011;10522;52.198;9.890;2023-12-07T08:52:55;23.07;;;13.63;;
20721;SDS011;10522;52.198;9.890;2023-12-07T08:55:21;21.53;;;14.20;;
20721;SDS011;10522;52.198;9.890;2023-12-07T08:57:47;23.60;;;13.23;;
20721;SDS011;10522;52.198;9.890;2023-12-07T09:00:12;20.20;;;12.90;;
20721;SDS011;10522;52.198;9.890;2023-12-07T09:02:38;20.40;;;13.10;;
20721;SDS011;10522;52.198;9.890;2023-12-07T09:05:04;25.23;;;14.73;;
20721;SDS011;10522;52.198;9.890;2023-12-07T09:07:30;24.67;;;13.33;;
20721;SDS011;10522;52.198;9.890;2023-12-07T09:09:55;21.03;;;13.10;;
20721;SDS011;10522;52.198;9.890;2023-12-07T09:12:21;19.90;;;12.07;;
20721;SDS011;10522;52.198;9.890;2023-12-07T09:14:46;20.63;;;12.50;;
20721;SDS011;10522;52.198;9.890;2023-12-07T09:17:12;23.17;;;13.27;;
20721;SDS011;10522;52.198;9.890;2023-12-07T09:19:37;25.03;;;14.03;;
20721;SDS011;10522;52.198;9.890;2023-12-07T09:22:03;29.97;;;13.53;;
20721;SDS011;10522;52.198;9.890;2023-12-07T09:24:29;21.17;;;12.30;;
20721;SDS011;10522;52.198;9.890;2023-12-07T09:26:54;23.57;;;14.03;;
20721;SDS011;10522;52.198;9.890;2023-12-07T09:29:20;21.70;;;13.07;;
20721;SDS011;10522;52.198;9.890;2023-12-07T09:31:45;21.73;;;13.67;;
20721;SDS011;10522;52.198;9.890;2023-12-07T09:34:11;26.00;;;13.73;;
20721;SDS011;10522;52.198;9.890;2023-12-07T09:36:42;26.53;;;13.30;;
20721;SDS011;10522;52.198;9.890;2023-12-07T09:39:08;26.33;;;15.00;;
20721;SDS011;10522;52.198;9.890;2023-12-07T09:41:35;23.43;;;13.90;;
20721;SDS011;10522;52.198;9.890;2023-12-07T09:44:01;21.70;;;13.77;;
20721;SDS011;10522;52.198;9.890;2023-12-07T09:46:28;25.27;;;13.47;;
20721;SDS011;10522;52.198;9.890;2023-12-07T09:48:55;21.43;;;13.43;;
20721;SDS011;10522;52.198;9.890;2023-12-07T09:51:21;23.03;;;13.10;;
20721;SDS011;10522;52.198;9.890;2023-12-07T09:53:48;21.03;;;12.03;;
20721;SDS011;10522;52.198;9.890;2023-12-07T09:56:17;21.90;;;13.00;;
20721;SDS011;10522;52.198;9.890;2023-12-07T09:58:43;24.10;;;13.60;;
20721;SDS011;10522;52.198;9.890;2023-12-07T10:01:09;27.53;;;13.50;;
20721;SDS011;10522;52.198;9.890;2023-12-07T10:03:38;21.13;;;13.70;;
20721;SDS011;10522;52.198;9.890;2023-12-07T10:06:04;20.97;;;13.07;;
20721;SDS011;10522;52.198;9.890;2023-12-07T10:08:31;23.37;;;14.73;;
20721;SDS011;10522;52.198;9.890;2023-12-07T10:11:10;24.17;;;13.63;;
20721;SDS011;10522;52.198;9.890;2023-12-07T10:13:38;24.20;;;12.30;;
20721;SDS011;10522;52.198;9.890;2023-12-07T10:16:09;21.40;;;12.93;;
20721;SDS011;10522;52.198;9.890;2023-12-07T10:18:35;20.50;;;12.37;;
20721;SDS011;10522;52.198;9.890;2023-12-07T10:21:01;17.37;;;11.53;;
20721;SDS011;10522;52.198;9.890;2023-12-07T10:23:27;23.20;;;14.37;;
20721;SDS011;10522;52.198;9.890;2023-12-07T10:25:53;22.73;;;13.47;;
20721;SDS011;10522;52.198;9.890;2023-12-07T10:28:19;24.13;;;13.47;;
20721;SDS011;10522;52.198;9.890;2023-12-07T10:30:46;24.83;;;13.50;;
20721;SDS011;10522;52.198;9.890;2023-12-07T10:33:12;25.13;;;15.17;;
20721;SDS011;10522;52.198;9.890;2023-12-07T10:35:38;22.10;;;13.63;;
20721;SDS011;10522;52.198;9.890;2023-12-07T10:38:05;22.40;;;13.93;;
20721;SDS011;10522;52.198;9.890;2023-12-07T10:40:30;26.67;;;16.10;;
20721;SDS011;10522;52.198;9.890;2023-12-07T10:42:56;25.97;;;14.87;;
20721;SDS011;10522;52.198;9.890;2023-12-07T10:45:24;26.60;;;15.40;;
20721;SDS011;10522;52.198;9.890;2023-12-07T10:47:54;22.77;;;14.23;;
20721;SDS011;10522;52.198;9.890;2023-12-07T10:50:26;26.80;;;14.83;;
20721;SDS011;10522;52.198;9.890;2023-12-07T10:52:55;25.97;;;14.23;;
20721;SDS011;10522;52.198;9.890;2023-12-07T10:55:30;26.43;;;15.70;;
20721;SDS011;10522;52.198;9.890;2023-12-07T10:58:03;23.47;;;13.87;;
20721;SDS011;10522;52.198;9.890;2023-12-07T11:00:30;25.17;;;14.63;;
20721;SDS011;10522;52.198;9.890;2023-12-07T11:02:56;22.27;;;14.67;;
20721;SDS011;10522;52.198;9.890;2023-12-07T11:05:24;21.63;;;13.93;;
20721;SDS011;10522;52.198;9.890;2023-12-07T11:07:53;22.97;;;14.33;;
20721;SDS011;10522;52.198;9.890;2023-12-07T11:15:38;23.00;;;14.07;;
20721;SDS011;10522;52.198;9.890;2023-12-07T11:18:04;23.20;;;13.87;;
20721;SDS011;10522;52.198;9.890;2023-12-07T11:20:40;28.10;;;16.00;;
20721;SDS011;10522;52.198;9.890;2023-12-07T11:23:08;27.13;;;15.50;;
20721;SDS011;10522;52.198;9.890;2023-12-07T11:25:34;26.20;;;15.67;;
20721;SDS011;10522;52.198;9.890;2023-12-07T11:28:01;25.40;;;14.70;;
20721;SDS011;10522;52.198;9.890;2023-12-07T11:30:31;26.90;;;13.67;;
20721;SDS011;10522;52.198;9.890;2023-12-07T11:32:58;23.77;;;14.43;;
20721;SDS011;10522;52.198;9.890;2023-12-07T11:35:25;25.83;;;15.50;;
20721;SDS011;10522;52.198;9.890;2023-12-07T11:38:03;25.83;;;15.17;;
20721;SDS011;10522;52.198;9.890;2023-12-07T11:40:39;26.93;;;15.43;;
20721;SDS011;10522;52.198;9.890;2023-12-07T11:43:07;23.70;;;13.57;;
20721;SDS011;10522;52.198;9.890;2023-12-07T11:45:51;23.57;;;13.80;;
20721;SDS011;10522;52.198;9.890;2023-12-07T11:48:18;22.03;;;13.50;;
20721;SDS011;10522;52.198;9.890;2023-12-07T11:51:05;24.77;;;14.13;;
20721;SDS011;10522;52.198;9.890;2023-12-07T11:53:31;26.03;;;14.23;;
20721;SDS011;10522;52.198;9.890;2023-12-07T11:55:58;22.67;;;14.07;;
20721;SDS011;10522;52.198;9.890;2023-12-07T11:58:25;24.33;;;14.00;;
20721;SDS011;10522;52.198;9.890;2023-12-07T12:00:54;23.20;;;14.33;;
20721;SDS011;10522;52.198;9.890;2023-12-07T12:03:21;26.77;;;15.30;;
20721;SDS011;10522;52.198;9.890;2023-12-07T12:05:51;26.83;;;15.47;;
20721;SDS011;10522;52.198;9.890;2023-12-07T12:08:17;26.80;;;14.67;;
20721;SDS011;10522;52.198;9.890;2023-12-07T12:10:44;27.53;;;15.83;;
20721;SDS011;10522;52.198;9.890;2023-12-07T12:13:10;24.60;;;15.03;;
20721;SDS011;10522;52.198;9.890;2023-12-07T12:15:40;25.17;;;15.37;;
20721;SDS011;10522;52.198;9.890;2023-12-07T12:18:06;20.27;;;12.70;;
20721;SDS011;10522;52.198;9.890;2023-12-07T12:20:33;24.57;;;13.80;;
20721;SDS011;10522;52.198;9.890;2023-12-07T12:22:59;21.63;;;12.53;;
20721;SDS011;10522;52.198;9.890;2023-12-07T12:25:28;22.20;;;12.90;;
20721;SDS011;10522;52.198;9.890;2023-12-07T12:27:56;20.37;;;11.63;;
20721;SDS011;10522;52.198;9.890;2023-12-07T12:30:29;20.13;;;11.97;;
20721;SDS011;10522;52.198;9.890;2023-12-07T12:32:55;21.17;;;11.60;;
20721;SDS011;10522;52.198;9.890;2023-12-07T12:35:21;23.90;;;13.33;;
20721;SDS011;10522;52.198;9.890;2023-12-07T12:37:49;24.80;;;13.83;;
20721;SDS011;10522;52.198;9.890;2023-12-07T12:40:15;19.60;;;12.63;;
20721;SDS011;10522;52.198;9.890;2023-12-07T12:42:45;19.10;;;12.13;;
20721;SDS011;10522;52.198;9.890;2023-12-07T12:45:12;19.87;;;11.83;;
20721;SDS011;10522;52.198;9.890;2023-12-07T12:47:42;19.97;;;12.07;;
20721;SDS011;10522;52.198;9.890;2023-12-07T12:50:08;22.63;;;13.27;;
20721;SDS011;10522;52.198;9.890;2023-12-07T12:52:34;19.97;;;11.87;;
20721;SDS011;10522;52.198;9.890;2023-12-07T12:55:01;20.43;;;11.87;;
20721;SDS011;10522;52.198;9.890;2023-12-07T12:57:27;21.17;;;11.53;;
20721;SDS011;10522;52.198;9.890;2023-12-07T12:59:53;21.10;;;11.87;;
20721;SDS011;10522;52.198;9.890;2023-12-07T13:02:19;18.53;;;11.63;;
20721;SDS011;10522;52.198;9.890;2023-12-07T13:04:46;20.17;;;11.30;;
20721;SDS011;10522;52.198;9.890;2023-12-07T13:07:12;18.40;;;10.40;;
20721;SDS011;10522;52.198;9.890;2023-12-07T13:09:38;19.20;;;11.67;;
20721;SDS011;10522;52.198;9.890;2023-12-07T13:12:04;19.03;;;11.43;;
20721;SDS011;10522;52.198;9.890;2023-12-07T13:14:30;20.73;;;11.07;;
20721;SDS011;10522;52.198;9.890;2023-12-07T13:16:57;19.27;;;11.33;;
20721;SDS011;10522;52.198;9.890;2023-12-07T13:19:22;19.83;;;11.30;;
20721;SDS011;10522;52.198;9.890;2023-12-07T13:21:48;18.83;;;10.87;;
20721;SDS011;10522;52.198;9.890;2023-12-07T13:24:13;19.20;;;11.60;;
20721;SDS011;10522;52.198;9.890;2023-12-07T13:26:39;25.27;;;11.30;;
20721;SDS011;10522;52.198;9.890;2023-12-07T13:29:05;19.60;;;11.87;;
20721;SDS011;10522;52.198;9.890;2023-12-07T13:31:32;18.80;;;11.03;;
20721;SDS011;10522;52.198;9.890;2023-12-07T13:33:58;18.87;;;10.53;;
20721;SDS011;10522;52.198;9.890;2023-12-07T13:36:24;17.43;;;11.10;;
20721;SDS011;10522;52.198;9.890;2023-12-07T13:38:52;16.93;;;10.07;;
20721;SDS011;10522;52.198;9.890;2023-12-07T13:41:17;15.87;;;9.23;;
20721;SDS011;10522;52.198;9.890;2023-12-07T13:43:43;16.30;;;9.93;;
20721;SDS011;10522;52.198;9.890;2023-12-07T13:46:08;14.90;;;8.60;;
20721;SDS011;10522;52.198;9.890;2023-12-07T13:48:35;15.23;;;8.97;;
20721;SDS011;10522;52.198;9.890;2023-12-07T13:51:01;17.37;;;9.13;;
20721;SDS011;10522;52.198;9.890;2023-12-07T13:53:27;15.00;;;8.60;;
20721;SDS011;10522;52.198;9.890;2023-12-07T13:55:53;12.33;;;8.40;;
20721;SDS011;10522;52.198;9.890;2023-12-07T13:58:18;12.33;;;7.30;;
20721;SDS011;10522;52.198;9.890;2023-12-07T14:00:44;16.27;;;8.13;;
20721;SDS011;10522;52.198;9.890;2023-12-07T14:03:10;11.63;;;7.30;;
20721;SDS011;10522;52.198;9.890;2023-12-07T14:05:36;12.20;;;7.60;;
20721;SDS011;10522;52.198;9.890;2023-12-07T14:08:03;11.10;;;7.20;;
20721;SDS011;10522;52.198;9.890;2023-12-07T14:10:28;15.90;;;9.77;;
20721;SDS011;10522;52.198;9.890;2023-12-07T14:12:54;17.00;;;9.23;;
20721;SDS011;10522;52.198;9.890;2023-12-07T14:15:19;15.33;;;9.07;;
20721;SDS011;10522;52.198;9.890;2023-12-07T14:17:45;12.93;;;7.80;;
20721;SDS011;10522;52.198;9.890;2023-12-07T14:20:10;15.57;;;8.50;;
20721;SDS011;10522;52.198;9.890;2023-12-07T14:22:36;14.50;;;8.77;;